Time;durP1;ratioP1;P1;durP2;ratioP2;P2;SDS_P1;SDS_P2;PMS_P1;PMS_P2;Temp;Humidity;BMP_temperature;BMP_pressure;BME280_temperature;BME280_humidity;BME280_pressure;Samples;Min_cycle;Max_cycle;Signal;HPM_P1;HPM_P2
2024/01/08 00:01:15;;;;;;;123.53;116.68;;;;;;;;;;5041401;28;20433;-73
2024/01/08 00:03:43;;;;;;;125.90;118.80;;;;;;;;;;5036453;28;20425;-73
2024/01/08 00:06:10;;;;;;;126.47;119.30;;;;;;;;;;5039122;28;20494;-74
2024/01/08 00:08:37;;;;;;;124.03;117.13;;;;;;;;;;5034317;28;20431;-74
2024/01/08 00:11:05;;;;;;;123.00;115.93;;;;;;;;;;5045470;28;20467;-74
2024/01/08 00:13:32;;;;;;;142.50;134.50;;;;;;;;;;5036152;28;21270;-73
2024/01/08 00:16:08;;;;;;;145.48;137.45;;;;;;;;;;5044329;28;20433;-73
2024/01/08 00:18:35;;;;;;;197.15;186.85;;;;;;;;;;5036131;28;20874;-73
2024/01/08 00:21:05;;;;;;;177.60;168.20;;;;;;;;;;5036355;28;20448;-74
2024/01/08 00:23:36;;;;;;;164.40;155.45;;;;;;;;;;5031556;28;20491;-74
2024/01/08 00:26:09;;;;;;;192.82;182.70;;;;;;;;;;5032586;28;20504;-73
2024/01/08 00:28:39;;;;;;;201.45;190.93;;;;;;;;;;5030690;28;20427;-74
2024/01/08 00:31:09;;;;;;;177.65;168.27;;;;;;;;;;5041846;28;21102;-74
2024/01/08 00:33:36;;;;;;;194.93;184.45;;;;;;;;;;5036621;28;20438;-73
2024/01/08 00:36:03;;;;;;;225.80;214.27;;;;;;;;;;5033771;28;20441;-73
2024/01/08 00:38:31;;;;;;;193.13;182.85;;;;;;;;;;5040262;28;20437;-74
2024/01/08 00:40:58;;;;;;;185.32;175.50;;;;;;;;;;5037921;28;20436;-74
2024/01/08 00:43:28;;;;;;;209.98;199.13;;;;;;;;;;5031073;28;21016;-74
2024/01/08 00:45:58;;;;;;;210.88;199.98;;;;;;;;;;5035159;28;20814;-74
2024/01/08 00:48:26;;;;;;;195.50;185.20;;;;;;;;;;5038780;28;20782;-74
2024/01/08 00:50:53;;;;;;;193.87;183.80;;;;;;;;;;5040440;28;20544;-73
2024/01/08 00:53:20;;;;;;;224.82;213.30;;;;;;;;;;5044302;28;20438;-73
2024/01/08 00:55:53;;;;;;;169.23;160.25;;;;;;;;;;5048219;28;20429;-74
2024/01/08 00:58:21;;;;;;;235.18;223.18;;;;;;;;;;5042089;28;20434;-73
2024/01/08 01:00:48;;;;;;;199.02;188.77;;;;;;;;;;5049151;28;20977;-73
2024/01/08 01:03:18;;;;;;;175.40;165.98;;;;;;;;;;5042761;28;20429;-73
2024/01/08 01:05:45;;;;;;;197.02;186.65;;;;;;;;;;5031484;28;20428;-73
2024/01/08 01:08:13;;;;;;;221.10;209.80;;;;;;;;;;5047909;28;20514;-73
2024/01/08 01:10:40;;;;;;;235.30;223.32;;;;;;;;;;5042633;28;20427;-74
2024/01/08 01:13:07;;;;;;;247.52;235.10;;;;;;;;;;5041107;28;21006;-74
2024/01/08 01:15:37;;;;;;;232.38;220.55;;;;;;;;;;5040786;28;20438;-74
2024/01/08 01:18:07;;;;;;;241.32;229.23;;;;;;;;;;5039697;28;20520;-73
2024/01/08 01:20:34;;;;;;;219.25;208.02;;;;;;;;;;5042843;28;20510;-73
2024/01/08 01:23:01;;;;;;;212.35;201.52;;;;;;;;;;5041351;28;20445;-74
2024/01/08 01:25:29;;;;;;;207.98;197.38;;;;;;;;;;5036549;28;20433;-74
2024/01/08 01:27:56;;;;;;;210.68;199.95;;;;;;;;;;5040419;28;20514;-74
2024/01/08 01:30:26;;;;;;;203.27;192.82;;;;;;;;;;5040848;28;20918;-74
2024/01/08 01:32:53;;;;;;;148.20;140.73;;;;;;;;;;5048155;28;20432;-74
2024/01/08 01:35:20;;;;;;;184.15;174.82;;;;;;;;;;5035287;28;20437;-74
2024/01/08 01:37:48;;;;;;;206.57;195.97;;;;;;;;;;5044696;28;20567;-74
2024/01/08 01:40:18;;;;;;;208.20;197.60;;;;;;;;;;5046315;28;20433;-74
2024/01/08 01:42:48;;;;;;;234.18;222.55;;;;;;;;;;5040456;28;21081;-74
2024/01/08 01:45:19;;;;;;;199.75;189.63;;;;;;;;;;5047495;28;20959;-74
2024/01/08 01:47:46;;;;;;;200.88;190.63;;;;;;;;;;5036390;28;20826;-74
2024/01/08 01:50:19;;;;;;;207.23;196.73;;;;;;;;;;5046476;28;20436;-74
2024/01/08 01:52:46;;;;;;;198.25;188.23;;;;;;;;;;5042878;28;20521;-74
2024/01/08 01:55:16;;;;;;;195.15;185.25;;;;;;;;;;5041269;28;20432;-74
2024/01/08 01:57:44;;;;;;;180.95;171.38;;;;;;;;;;5045171;28;20451;-74
2024/01/08 02:00:14;;;;;;;182.82;173.13;;;;;;;;;;5045383;28;20427;-74
2024/01/08 02:02:41;;;;;;;214.40;203.43;;;;;;;;;;5043734;28;20421;-75
2024/01/08 02:05:10;;;;;;;209.02;198.10;;;;;;;;;;5044917;28;20452;-74
2024/01/08 02:07:40;;;;;;;180.80;171.63;;;;;;;;;;5039373;28;20534;-74
2024/01/08 02:10:07;;;;;;;175.88;166.73;;;;;;;;;;5033710;28;20437;-73
2024/01/08 02:12:35;;;;;;;177.82;168.63;;;;;;;;;;5043060;28;20442;-74
2024/01/08 02:15:04;;;;;;;169.85;161.02;;;;;;;;;;5044053;28;20483;-74
2024/01/08 02:17:31;;;;;;;173.80;164.63;;;;;;;;;;5039191;28;20508;-75
2024/01/08 02:19:59;;;;;;;182.00;172.43;;;;;;;;;;5030616;28;20443;-74
2024/01/08 02:22:26;;;;;;;150.82;142.55;;;;;;;;;;5048827;28;20468;-74
2024/01/08 02:24:55;;;;;;;155.90;147.50;;;;;;;;;;5045184;28;20433;-74
2024/01/08 02:27:22;;;;;;;163.43;154.80;;;;;;;;;;5038806;28;20438;-74
2024/01/08 02:29:49;;;;;;;173.45;164.35;;;;;;;;;;5039169;28;20431;-74
2024/01/08 02:32:16;;;;;;;153.20;145.15;;;;;;;;;;5041461;28;20489;-74
2024/01/08 02:34:43;;;;;;;157.45;149.32;;;;;;;;;;5035538;28;20521;-74
2024/01/08 02:37:12;;;;;;;144.27;136.77;;;;;;;;;;5035740;28;20955;-74
2024/01/08 02:39:39;;;;;;;145.82;138.23;;;;;;;;;;5040499;28;20442;-74
2024/01/08 02:42:06;;;;;;;129.48;122.28;;;;;;;;;;5038506;28;20437;-74
2024/01/08 02:44:34;;;;;;;151.90;143.63;;;;;;;;;;5036893;28;20442;-74
2024/01/08 02:47:01;;;;;;;136.40;128.90;;;;;;;;;;5046811;28;20536;-74
2024/01/08 02:49:29;;;;;;;149.55;141.50;;;;;;;;;;5032233;28;20431;-74
2024/01/08 02:51:56;;;;;;;155.75;147.35;;;;;;;;;;5044557;28;20516;-74
2024/01/08 02:54:23;;;;;;;163.60;154.95;;;;;;;;;;5040505;28;20440;-74
2024/01/08 02:56:51;;;;;;;152.98;144.57;;;;;;;;;;5031599;28;20430;-74
2024/01/08 02:59:18;;;;;;;124.03;117.03;;;;;;;;;;5041960;28;20483;-74
2024/01/08 03:01:45;;;;;;;124.78;117.78;;;;;;;;;;5042200;28;20433;-74
2024/01/08 03:04:13;;;;;;;126.72;119.43;;;;;;;;;;5048160;28;20953;-74
2024/01/08 03:06:41;;;;;;;143.57;135.70;;;;;;;;;;5037368;28;20437;-74
2024/01/08 03:09:08;;;;;;;174.30;165.02;;;;;;;;;;5035831;28;20453;-74
2024/01/08 03:11:38;;;;;;;123.28;116.28;;;;;;;;;;5038717;28;20780;-74
2024/01/08 03:14:08;;;;;;;132.43;124.72;;;;;;;;;;5043158;28;20509;-74
2024/01/08 03:16:35;;;;;;;132.57;125.13;;;;;;;;;;5037237;28;20431;-74
2024/01/08 03:19:02;;;;;;;130.93;123.50;;;;;;;;;;5029180;28;20434;-74
2024/01/08 03:21:30;;;;;;;137.65;129.93;;;;;;;;;;5039234;28;20520;-75
2024/01/08 03:24:00;;;;;;;124.25;117.07;;;;;;;;;;5035198;28;20426;-75
2024/01/08 03:26:27;;;;;;;124.07;116.65;;;;;;;;;;5045447;28;20427;-74
2024/01/08 03:28:54;;;;;;;124.03;116.72;;;;;;;;;;5037568;28;20501;-74
2024/01/08 03:31:21;;;;;;;120.57;113.70;;;;;;;;;;5044109;28;20500;-74
2024/01/08 03:33:49;;;;;;;117.65;110.90;;;;;;;;;;5041915;28;20431;-74
2024/01/08 03:36:16;;;;;;;121.60;114.43;;;;;;;;;;5037679;28;20485;-75
2024/01/08 03:38:43;;;;;;;122.40;115.30;;;;;;;;;;5037008;28;20931;-74
2024/01/08 03:41:11;;;;;;;128.07;120.57;;;;;;;;;;5043030;28;20429;-74
2024/01/08 03:43:38;;;;;;;124.95;117.75;;;;;;;;;;5039356;28;20521;-75
2024/01/08 03:46:08;;;;;;;123.20;116.03;;;;;;;;;;5041030;28;20427;-74
2024/01/08 03:48:35;;;;;;;122.85;115.75;;;;;;;;;;5038991;28;20517;-74
2024/01/08 03:51:02;;;;;;;129.57;122.25;;;;;;;;;;5039139;28;20429;-75
2024/01/08 03:53:32;;;;;;;128.68;121.25;;;;;;;;;;5041179;28;20433;-74
2024/01/08 03:56:02;;;;;;;129.45;122.25;;;;;;;;;;5038268;28;20446;-74
2024/01/08 03:58:30;;;;;;;131.87;124.27;;;;;;;;;;5040817;28;20460;-74
2024/01/08 04:00:57;;;;;;;127.50;120.05;;;;;;;;;;5040463;28;20511;-74
2024/01/08 04:03:25;;;;;;;122.15;115.15;;;;;;;;;;5045209;28;22248;-74
2024/01/08 04:05:52;;;;;;;125.65;118.32;;;;;;;;;;5037173;28;20429;-74
2024/01/08 04:08:19;;;;;;;125.70;118.53;;;;;;;;;;5040279;28;20435;-74
2024/01/08 04:10:48;;;;;;;122.40;115.25;;;;;;;;;;5036929;28;21090;-73
2024/01/08 04:13:18;;;;;;;127.10;119.60;;;;;;;;;;5043742;28;20459;-75
2024/01/08 04:15:45;;;;;;;137.30;129.15;;;;;;;;;;5047074;28;20511;-75
2024/01/08 04:18:18;;;;;;;131.48;123.78;;;;;;;;;;5040257;28;20429;-74
2024/01/08 04:20:45;;;;;;;125.35;118.22;;;;;;;;;;5035365;28;20441;-73
2024/01/08 04:23:13;;;;;;;123.20;116.22;;;;;;;;;;5036124;28;20429;-74
2024/01/08 04:25:40;;;;;;;121.38;114.55;;;;;;;;;;5043630;28;20508;-74
2024/01/08 04:28:08;;;;;;;124.63;117.53;;;;;;;;;;5035289;28;20427;-74
2024/01/08 04:30:35;;;;;;;189.60;179.73;;;;;;;;;;5045234;28;20839;-74
2024/01/08 04:33:03;;;;;;;249.57;236.93;;;;;;;;;;5048300;28;20485;-75
2024/01/08 04:35:30;;;;;;;289.25;274.83;;;;;;;;;;5045011;28;20777;-74
2024/01/08 04:37:57;;;;;;;283.98;269.85;;;;;;;;;;5042792;28;20462;-74
2024/01/08 04:40:25;;;;;;;275.80;261.98;;;;;;;;;;5046096;28;20495;-74
2024/01/08 04:42:52;;;;;;;260.35;247.40;;;;;;;;;;5043348;28;20433;-73
2024/01/08 04:45:19;;;;;;;235.43;223.45;;;;;;;;;;5048295;28;20429;-74
2024/01/08 04:47:46;;;;;;;236.65;224.80;;;;;;;;;;5044101;28;20433;-75
2024/01/08 04:50:14;;;;;;;239.60;227.48;;;;;;;;;;5044854;28;21110;-74
2024/01/08 04:52:41;;;;;;;239.07;226.75;;;;;;;;;;5041964;28;20438;-75
2024/01/08 04:55:12;;;;;;;244.70;232.45;;;;;;;;;;5040384;28;20440;-74
2024/01/08 04:57:39;;;;;;;244.50;232.20;;;;;;;;;;5032588;28;20438;-74
2024/01/08 05:00:07;;;;;;;241.67;229.57;;;;;;;;;;5040196;28;20433;-74
2024/01/08 05:02:34;;;;;;;232.05;220.52;;;;;;;;;;5041575;28;20431;-74
2024/01/08 05:05:04;;;;;;;247.30;235.10;;;;;;;;;;5039388;28;20433;-74
2024/01/08 05:07:32;;;;;;;240.50;228.65;;;;;;;;;;5041208;28;20488;-73
2024/01/08 05:10:03;;;;;;;235.65;224.05;;;;;;;;;;5032491;28;20510;-74
2024/01/08 05:12:30;;;;;;;226.65;215.43;;;;;;;;;;5034078;28;20561;-74
2024/01/08 05:14:57;;;;;;;219.40;208.40;;;;;;;;;;5043767;28;20547;-74
2024/01/08 05:17:33;;;;;;;214.20;203.30;;;;;;;;;;5050486;28;20435;-75
2024/01/08 05:20:01;;;;;;;202.57;192.27;;;;;;;;;;5052126;28;20425;-74
2024/01/08 05:22:31;;;;;;;206.50;196.02;;;;;;;;;;5040014;28;20437;-74
2024/01/08 05:24:58;;;;;;;196.85;186.88;;;;;;;;;;5040866;28;20517;-73
2024/01/08 05:27:25;;;;;;;203.47;193.10;;;;;;;;;;5050128;28;20436;-74
2024/01/08 05:29:53;;;;;;;206.18;195.68;;;;;;;;;;5049694;28;20437;-74
2024/01/08 05:32:20;;;;;;;209.75;199.00;;;;;;;;;;5039881;28;20423;-75
2024/01/08 05:34:47;;;;;;;209.32;198.50;;;;;;;;;;5041098;28;20468;-73
2024/01/08 05:37:14;;;;;;;204.85;194.13;;;;;;;;;;5047280;28;20433;-74
2024/01/08 05:39:43;;;;;;;208.77;198.00;;;;;;;;;;5038337;28;20447;-73
2024/01/08 05:42:11;;;;;;;152.90;144.83;;;;;;;;;;5039727;28;20461;-74
2024/01/08 05:44:41;;;;;;;160.88;152.55;;;;;;;;;;5050715;28;20504;-73
2024/01/08 05:47:08;;;;;;;125.20;118.27;;;;;;;;;;5048322;28;20527;-74
2024/01/08 05:49:35;;;;;;;155.13;146.88;;;;;;;;;;5038027;28;20452;-73
2024/01/08 05:52:02;;;;;;;186.40;176.75;;;;;;;;;;5040723;28;20442;-74
2024/01/08 05:54:29;;;;;;;205.15;194.48;;;;;;;;;;5038423;28;20426;-74
2024/01/08 05:56:57;;;;;;;184.27;174.82;;;;;;;;;;5035835;28;20433;-73
2024/01/08 05:59:24;;;;;;;200.52;190.27;;;;;;;;;;5043393;28;20428;-73
2024/01/08 06:01:57;;;;;;;207.48;196.88;;;;;;;;;;5048042;28;20443;-73
2024/01/08 06:04:24;;;;;;;207.17;196.63;;;;;;;;;;5037531;28;20513;-70
2024/01/08 06:06:52;;;;;;;195.93;185.77;;;;;;;;;;5047973;28;20867;-70
2024/01/08 06:09:19;;;;;;;184.02;174.60;;;;;;;;;;5037208;28;20441;-70
2024/01/08 06:11:47;;;;;;;189.00;179.40;;;;;;;;;;5034508;28;20480;-69
2024/01/08 06:14:14;;;;;;;175.90;166.77;;;;;;;;;;5040697;28;20440;-70
2024/01/08 06:16:44;;;;;;;173.30;164.30;;;;;;;;;;5042585;28;20512;-70
2024/01/08 06:19:11;;;;;;;158.77;150.32;;;;;;;;;;5045443;28;20903;-70
2024/01/08 06:21:38;;;;;;;158.95;150.57;;;;;;;;;;5036568;28;20922;-70
2024/01/08 06:24:08;;;;;;;148.65;140.75;;;;;;;;;;5044337;28;20524;-70
2024/01/08 06:26:35;;;;;;;145.02;137.23;;;;;;;;;;5040883;28;20526;-69
2024/01/08 06:29:03;;;;;;;125.03;118.13;;;;;;;;;;5044801;28;20425;-69
2024/01/08 06:31:30;;;;;;;120.28;113.78;;;;;;;;;;5035985;28;20461;-70
2024/01/08 06:34:00;;;;;;;110.15;103.97;;;;;;;;;;5037627;28;20450;-70
2024/01/08 06:36:27;;;;;;;125.35;118.40;;;;;;;;;;5038559;28;20917;-70
2024/01/08 06:38:55;;;;;;;131.93;124.45;;;;;;;;;;5038950;28;20846;-70
2024/01/08 06:41:24;;;;;;;127.97;120.45;;;;;;;;;;5036491;28;20429;-70
2024/01/08 06:43:54;;;;;;;131.25;123.60;;;;;;;;;;5040982;28;20495;-70
2024/01/08 06:46:21;;;;;;;135.60;127.95;;;;;;;;;;5044013;28;20872;-70
2024/01/08 06:48:52;;;;;;;128.53;121.23;;;;;;;;;;5039445;28;20425;-70
2024/01/08 06:51:19;;;;;;;127.72;120.30;;;;;;;;;;5044173;28;20432;-70
2024/01/08 06:53:47;;;;;;;136.98;129.07;;;;;;;;;;5049482;28;20935;-70
2024/01/08 06:56:14;;;;;;;137.75;129.82;;;;;;;;;;5049162;28;20436;-70
2024/01/08 06:58:42;;;;;;;136.23;128.43;;;;;;;;;;5033953;28;20427;-70
2024/01/08 07:01:09;;;;;;;132.80;125.43;;;;;;;;;;5036307;28;20442;-70
2024/01/08 07:03:36;;;;;;;153.00;144.32;;;;;;;;;;5038824;28;20434;-70
2024/01/08 07:06:04;;;;;;;131.40;123.93;;;;;;;;;;5045159;28;20508;-70
2024/01/08 07:08:31;;;;;;;177.10;167.60;;;;;;;;;;5033857;28;20940;-70
2024/01/08 07:10:58;;;;;;;175.77;166.48;;;;;;;;;;5029543;28;20462;-70
2024/01/08 07:13:26;;;;;;;174.30;165.20;;;;;;;;;;5034239;28;20429;-70
2024/01/08 07:15:57;;;;;;;147.30;139.23;;;;;;;;;;5037315;28;20447;-70
2024/01/08 07:18:24;;;;;;;141.38;133.52;;;;;;;;;;5034933;28;20435;-70
2024/01/08 07:20:51;;;;;;;156.77;148.18;;;;;;;;;;5027493;28;20521;-70
2024/01/08 07:23:25;;;;;;;140.48;132.50;;;;;;;;;;5030027;28;20494;-70
2024/01/08 07:25:52;;;;;;;140.55;132.55;;;;;;;;;;5035373;28;20466;-70
2024/01/08 07:28:20;;;;;;;142.83;134.83;;;;;;;;;;5036499;28;20435;-70
2024/01/08 07:30:50;;;;;;;146.10;138.00;;;;;;;;;;5031601;28;20504;-70
2024/01/08 07:33:17;;;;;;;133.45;125.85;;;;;;;;;;5035361;28;20446;-70
2024/01/08 07:35:45;;;;;;;130.50;123.13;;;;;;;;;;5039252;28;20445;-70
2024/01/08 07:38:12;;;;;;;137.00;129.25;;;;;;;;;;5037439;28;20441;-70
2024/01/08 07:40:41;;;;;;;150.50;142.25;;;;;;;;;;5040221;28;20460;-70
2024/01/08 07:43:08;;;;;;;176.40;167.05;;;;;;;;;;5037977;28;20433;-70
2024/01/08 07:45:35;;;;;;;175.60;166.18;;;;;;;;;;5036871;28;20483;-70
2024/01/08 07:48:03;;;;;;;167.93;159.02;;;;;;;;;;5032508;28;20429;-70
2024/01/08 07:50:30;;;;;;;170.35;161.20;;;;;;;;;;5038831;28;20433;-70
2024/01/08 07:52:57;;;;;;;181.73;172.23;;;;;;;;;;5036239;28;20434;-69
2024/01/08 07:55:27;;;;;;;182.23;172.93;;;;;;;;;;5034241;28;20425;-71
2024/01/08 07:57:55;;;;;;;182.40;172.98;;;;;;;;;;5041601;28;20901;-71
2024/01/08 08:00:25;;;;;;;193.80;183.68;;;;;;;;;;5033000;28;20929;-70
2024/01/08 08:02:55;;;;;;;184.10;174.27;;;;;;;;;;5038972;28;20452;-69
2024/01/08 08:05:22;;;;;;;178.77;169.43;;;;;;;;;;5033477;28;21080;-69
2024/01/08 08:07:53;;;;;;;207.35;196.75;;;;;;;;;;5033901;28;20431;-69
2024/01/08 08:10:20;;;;;;;202.88;192.27;;;;;;;;;;5044293;28;20938;-69
2024/01/08 08:12:51;;;;;;;191.67;181.80;;;;;;;;;;5042511;28;20441;-69
2024/01/08 08:15:20;;;;;;;185.68;176.23;;;;;;;;;;5045976;28;20500;-69
2024/01/08 08:17:49;;;;;;;157.38;149.23;;;;;;;;;;5034041;28;20440;-70
2024/01/08 08:20:17;;;;;;;158.07;149.50;;;;;;;;;;5044375;28;20888;-69
2024/01/08 08:22:44;;;;;;;159.07;150.80;;;;;;;;;;5040466;28;20439;-69
2024/01/08 08:25:14;;;;;;;167.40;158.70;;;;;;;;;;5035139;28;20425;-69
2024/01/08 08:27:42;;;;;;;201.75;191.35;;;;;;;;;;5039795;28;21053;-68
2024/01/08 08:30:12;;;;;;;216.32;205.27;;;;;;;;;;5038659;28;20433;-70
2024/01/08 08:32:39;;;;;;;197.75;187.68;;;;;;;;;;5031265;28;20796;-69
2024/01/08 08:35:08;;;;;;;194.98;185.02;;;;;;;;;;5038671;28;20787;-70
2024/01/08 08:37:36;;;;;;;193.07;183.18;;;;;;;;;;5035002;28;20443;-70
2024/01/08 08:40:18;;;;;;;200.48;190.27;;;;;;;;;;5030106;28;20438;-70
2024/01/08 08:42:46;;;;;;;189.82;180.18;;;;;;;;;;5031576;28;20436;-69
2024/01/08 08:45:17;;;;;;;178.80;169.55;;;;;;;;;;5035266;28;20439;-69
2024/01/08 08:47:45;;;;;;;177.27;167.50;;;;;;;;;;5030774;28;21078;-69
2024/01/08 08:50:12;;;;;;;178.93;169.70;;;;;;;;;;5036635;28;20454;-69
2024/01/08 08:52:43;;;;;;;175.38;166.50;;;;;;;;;;5040057;28;20586;-70
2024/01/08 08:55:12;;;;;;;177.77;168.63;;;;;;;;;;5045580;28;20595;-70
2024/01/08 08:57:42;;;;;;;178.48;169.23;;;;;;;;;;5042261;28;20768;-71
2024/01/08 09:00:09;;;;;;;194.20;184.27;;;;;;;;;;5040236;28;20442;-70
2024/01/08 09:02:39;;;;;;;201.35;190.90;;;;;;;;;;5040937;28;20429;-70
2024/01/08 09:05:07;;;;;;;207.03;196.47;;;;;;;;;;5032581;28;20787;-70
2024/01/08 09:07:39;;;;;;;217.02;205.93;;;;;;;;;;5040521;28;20429;-70
2024/01/08 09:10:06;;;;;;;208.27;197.60;;;;;;;;;;5036544;28;20789;-70
2024/01/08 09:12:33;;;;;;;205.88;195.20;;;;;;;;;;5042641;28;20826;-70
2024/01/08 09:15:00;;;;;;;211.77;200.98;;;;;;;;;;5046446;28;20436;-70
2024/01/08 09:17:29;;;;;;;184.60;174.80;;;;;;;;;;5040948;28;20431;-70
2024/01/08 09:19:56;;;;;;;200.80;190.30;;;;;;;;;;5042122;28;20432;-69
2024/01/08 09:22:24;;;;;;;218.52;207.00;;;;;;;;;;5045328;28;20437;-70
2024/01/08 09:24:52;;;;;;;199.75;189.57;;;;;;;;;;5035223;28;20438;-70
2024/01/08 09:27:19;;;;;;;186.20;176.35;;;;;;;;;;5039695;28;20503;-69
2024/01/08 09:29:47;;;;;;;162.93;154.17;;;;;;;;;;5045051;28;21089;-69
2024/01/08 09:32:14;;;;;;;154.47;146.23;;;;;;;;;;5041732;28;20800;-69
2024/01/08 09:34:44;;;;;;;109.45;103.50;;;;;;;;;;5035832;28;20848;-70
2024/01/08 09:37:11;;;;;;;153.30;145.07;;;;;;;;;;5033648;28;20898;-69
2024/01/08 09:39:39;;;;;;;151.10;142.77;;;;;;;;;;5046860;28;20507;-69
2024/01/08 09:42:09;;;;;;;129.30;122.40;;;;;;;;;;5037099;28;20439;-69
2024/01/08 09:44:38;;;;;;;147.57;139.70;;;;;;;;;;5038130;28;20532;-70
2024/01/08 09:47:05;;;;;;;145.48;137.73;;;;;;;;;;5037176;28;20523;-69
2024/01/08 09:49:35;;;;;;;153.43;145.25;;;;;;;;;;5038183;28;20431;-69
2024/01/08 09:52:03;;;;;;;153.85;145.60;;;;;;;;;;5042009;28;20897;-69
2024/01/08 09:54:31;;;;;;;152.15;143.77;;;;;;;;;;5033825;28;20431;-70
2024/01/08 09:56:58;;;;;;;133.53;126.00;;;;;;;;;;5039738;28;21026;-73
2024/01/08 09:59:26;;;;;;;160.23;151.63;;;;;;;;;;5047431;28;20436;-71
2024/01/08 10:01:56;;;;;;;172.38;162.77;;;;;;;;;;5035329;28;20462;-71
2024/01/08 10:04:27;;;;;;;119.20;112.47;;;;;;;;;;5039418;28;21297;-71
2024/01/08 10:07:12;;;;;;;149.35;140.45;;;;;;;;;;5031719;28;20470;-71
2024/01/08 10:09:39;;;;;;;156.32;146.95;;;;;;;;;;5039797;28;20438;-72
2024/01/08 10:12:12;;;;;;;146.75;138.15;;;;;;;;;;5046663;28;20842;-70
2024/01/08 10:14:40;;;;;;;143.48;134.93;;;;;;;;;;5041135;28;20522;-71
2024/01/08 10:17:07;;;;;;;154.38;145.32;;;;;;;;;;5035479;28;20441;-71
2024/01/08 10:19:35;;;;;;;156.48;147.23;;;;;;;;;;5036915;28;20497;-70
2024/01/08 10:22:15;;;;;;;157.48;148.38;;;;;;;;;;5041623;28;20437;-72
2024/01/08 10:24:43;;;;;;;141.47;133.07;;;;;;;;;;5041163;28;20494;-73
2024/01/08 10:27:11;;;;;;;139.63;131.40;;;;;;;;;;5038051;28;20425;-72
2024/01/08 10:29:40;;;;;;;137.70;129.73;;;;;;;;;;5042704;28;20429;-72
2024/01/08 10:32:08;;;;;;;144.02;135.73;;;;;;;;;;5040136;28;20493;-72
2024/01/08 10:34:38;;;;;;;144.73;136.50;;;;;;;;;;5037271;28;20521;-72
2024/01/08 10:37:06;;;;;;;148.50;139.55;;;;;;;;;;5032514;28;20447;-72
2024/01/08 10:39:34;;;;;;;137.80;129.68;;;;;;;;;;5037073;28;20442;-70
2024/01/08 10:42:16;;;;;;;131.57;123.90;;;;;;;;;;5041914;28;20981;-71
2024/01/08 10:44:46;;;;;;;143.60;134.93;;;;;;;;;;5038752;28;20461;-72
2024/01/08 10:47:17;;;;;;;125.13;118.03;;;;;;;;;;5046227;28;21011;-72
2024/01/08 10:49:53;;;;;;;142.32;134.18;;;;;;;;;;5035819;28;20786;-72
2024/01/08 10:52:29;;;;;;;147.27;138.98;;;;;;;;;;5035660;28;20753;-74
2024/01/08 10:55:00;;;;;;;140.60;132.20;;;;;;;;;;5035490;28;20432;-75
2024/01/08 10:57:46;;;;;;;146.68;138.27;;;;;;;;;;5043534;28;20467;-73
2024/01/08 11:00:13;;;;;;;138.50;130.40;;;;;;;;;;5034013;28;20443;-73
2024/01/08 11:02:44;;;;;;;140.93;132.90;;;;;;;;;;5038711;28;20431;-73
2024/01/08 11:05:13;;;;;;;138.73;130.80;;;;;;;;;;5043346;28;21005;-73
2024/01/08 11:07:44;;;;;;;143.50;135.27;;;;;;;;;;5028382;28;20502;-73
2024/01/08 11:10:11;;;;;;;190.32;180.07;;;;;;;;;;5038695;28;20427;-73
2024/01/08 11:12:40;;;;;;;187.57;177.63;;;;;;;;;;5036458;28;20882;-73
2024/01/08 11:15:08;;;;;;;164.13;155.13;;;;;;;;;;5032481;28;20465;-73
2024/01/08 11:17:35;;;;;;;214.93;203.68;;;;;;;;;;5033508;28;20467;-72
2024/01/08 11:20:06;;;;;;;227.95;216.20;;;;;;;;;;5037572;28;20433;-72
2024/01/08 11:22:37;;;;;;;247.63;235.03;;;;;;;;;;5039524;28;21046;-71
2024/01/08 11:25:05;;;;;;;196.02;186.02;;;;;;;;;;5030735;28;20435;-72
2024/01/08 11:27:33;;;;;;;192.32;182.43;;;;;;;;;;5029747;28;20431;-72
2024/01/08 11:30:01;;;;;;;233.73;221.70;;;;;;;;;;5037695;28;20854;-71
2024/01/08 11:32:45;;;;;;;226.95;215.15;;;;;;;;;;5031462;28;20858;-72
2024/01/08 11:35:13;;;;;;;235.75;223.60;;;;;;;;;;5039537;28;20833;-72
2024/01/08 11:37:42;;;;;;;231.63;219.32;;;;;;;;;;5038138;28;20444;-72
2024/01/08 11:40:17;;;;;;;240.45;227.85;;;;;;;;;;5039142;28;20516;-72
2024/01/08 11:42:45;;;;;;;239.73;227.38;;;;;;;;;;5035812;28;20436;-72
2024/01/08 11:45:12;;;;;;;265.40;252.10;;;;;;;;;;5037672;28;20437;-72
2024/01/08 11:47:40;;;;;;;227.07;215.43;;;;;;;;;;5035474;28;20429;-72
2024/01/08 11:50:08;;;;;;;245.93;233.40;;;;;;;;;;5030007;28;20473;-72
2024/01/08 11:52:38;;;;;;;230.30;218.40;;;;;;;;;;5035360;28;20813;-72
2024/01/08 11:55:07;;;;;;;232.27;220.35;;;;;;;;;;5034919;28;20437;-72
2024/01/08 11:57:35;;;;;;;236.18;224.10;;;;;;;;;;5036295;28;20833;-72
2024/01/08 12:00:12;;;;;;;193.65;183.48;;;;;;;;;;5034928;28;20482;-72
2024/01/08 12:02:39;;;;;;;168.65;160.02;;;;;;;;;;5041954;28;20455;-73
2024/01/08 12:05:11;;;;;;;204.07;193.68;;;;;;;;;;5035013;28;20431;-73
2024/01/08 12:07:39;;;;;;;182.27;172.77;;;;;;;;;;5039653;28;21023;-73
2024/01/08 12:10:07;;;;;;;172.30;162.82;;;;;;;;;;5031480;28;20435;-73
2024/01/08 12:12:35;;;;;;;166.48;157.73;;;;;;;;;;5040059;28;20424;-73
2024/01/08 12:15:04;;;;;;;141.35;133.45;;;;;;;;;;5034826;28;20435;-73
2024/01/08 12:17:32;;;;;;;170.00;160.80;;;;;;;;;;5041055;28;20483;-73
2024/01/08 12:20:01;;;;;;;180.57;170.82;;;;;;;;;;5037006;28;20558;-73
2024/01/08 12:22:28;;;;;;;170.65;161.35;;;;;;;;;;5041398;28;20444;-73
2024/01/08 12:24:56;;;;;;;221.07;209.57;;;;;;;;;;5037557;28;20548;-72
2024/01/08 12:27:30;;;;;;;185.63;175.50;;;;;;;;;;5035498;28;20439;-73
2024/01/08 12:29:59;;;;;;;140.98;133.50;;;;;;;;;;5039136;28;20433;-73
2024/01/08 12:32:27;;;;;;;132.85;125.53;;;;;;;;;;5045057;28;20603;-74
2024/01/08 12:34:55;;;;;;;152.73;144.38;;;;;;;;;;5027683;28;20429;-73
2024/01/08 12:37:25;;;;;;;151.20;143.00;;;;;;;;;;5034526;28;20496;-73
2024/01/08 12:39:53;;;;;;;162.40;153.57;;;;;;;;;;5035516;28;21135;-73
2024/01/08 12:42:23;;;;;;;192.32;182.35;;;;;;;;;;5039937;28;20425;-73
2024/01/08 12:44:51;;;;;;;184.70;174.65;;;;;;;;;;5032089;28;20435;-73
2024/01/08 12:47:18;;;;;;;189.80;179.60;;;;;;;;;;5033465;28;20455;-73
2024/01/08 12:49:48;;;;;;;178.20;168.67;;;;;;;;;;5038570;28;20429;-73
2024/01/08 12:52:15;;;;;;;140.65;133.10;;;;;;;;;;5045283;28;20491;-73
2024/01/08 12:54:43;;;;;;;171.75;162.68;;;;;;;;;;5042529;28;20436;-72
2024/01/08 12:57:13;;;;;;;166.27;157.07;;;;;;;;;;5035958;28;20434;-73
2024/01/08 12:59:51;;;;;;;170.32;161.13;;;;;;;;;;5042390;28;20431;-72
2024/01/08 13:02:18;;;;;;;170.55;161.52;;;;;;;;;;5036130;28;20475;-72
2024/01/08 13:04:45;;;;;;;173.95;164.65;;;;;;;;;;5038783;28;20433;-74
2024/01/08 13:07:13;;;;;;;162.20;153.50;;;;;;;;;;5045394;28;20458;-72
2024/01/08 13:09:40;;;;;;;175.25;165.43;;;;;;;;;;5039463;28;20542;-73
2024/01/08 13:12:10;;;;;;;166.82;157.85;;;;;;;;;;5033188;28;21126;-72
2024/01/08 13:14:38;;;;;;;177.98;168.32;;;;;;;;;;5045159;28;20498;-72
2024/01/08 13:17:05;;;;;;;187.67;177.73;;;;;;;;;;5037575;28;20440;-73
2024/01/08 13:19:34;;;;;;;173.68;164.07;;;;;;;;;;5043182;28;20440;-72
2024/01/08 13:22:02;;;;;;;176.07;166.20;;;;;;;;;;5047770;28;20432;-72
2024/01/08 13:24:30;;;;;;;190.07;180.13;;;;;;;;;;5041462;28;20443;-72
2024/01/08 13:26:58;;;;;;;195.98;182.75;;;;;;;;;;5030829;28;20432;-72
2024/01/08 13:29:25;;;;;;;201.93;191.32;;;;;;;;;;5047968;28;20465;-72
2024/01/08 13:31:52;;;;;;;194.43;184.32;;;;;;;;;;5045781;28;20896;-72
2024/01/08 13:34:20;;;;;;;109.63;103.22;;;;;;;;;;5037243;28;20487;-72
2024/01/08 13:36:47;;;;;;;145.18;137.05;;;;;;;;;;5040660;28;20454;-71
2024/01/08 13:39:14;;;;;;;141.45;133.57;;;;;;;;;;5040301;28;20429;-72
2024/01/08 13:41:41;;;;;;;128.70;121.60;;;;;;;;;;5038294;28;20548;-71
2024/01/08 13:44:10;;;;;;;123.95;116.85;;;;;;;;;;5036900;28;20516;-73
2024/01/08 13:46:38;;;;;;;132.20;124.85;;;;;;;;;;5038697;28;20434;-72
2024/01/08 13:49:05;;;;;;;145.15;136.75;;;;;;;;;;5037648;28;20515;-72
2024/01/08 13:51:32;;;;;;;138.10;130.15;;;;;;;;;;5041088;28;20505;-71
2024/01/08 13:54:00;;;;;;;146.32;138.13;;;;;;;;;;5036139;28;20441;-72
2024/01/08 13:56:27;;;;;;;132.60;124.93;;;;;;;;;;5040209;28;20483;-72
2024/01/08 13:58:57;;;;;;;131.80;124.10;;;;;;;;;;5041688;28;20429;-72